Time;durP1;ratioP1;P1;durP2;ratioP2;P2;SDS_P1;SDS_P2;PMS_P1;PMS_P2;Temp;Humidity;BMP_temperature;BMP_pressure;BME280_temperature;BME280_humidity;BME280_pressure;Samples;Min_cycle;Max_cycle;Signal;HPM_P1;HPM_P2
2022/07/29 00:00:44;;;;;;;3.30;3.00;;;;;;;20.05;71.92;96477.84;10353475;28;20042;-26
2022/07/29 00:05:44;;;;;;;5.00;4.22;;;;;;;20.15;71.66;96471.81;10358310;28;20042;-26
2022/07/29 00:10:45;;;;;;;3.93;3.00;;;;;;;20.17;71.51;96470.13;10365012;28;20049;-26
2022/07/29 00:15:45;;;;;;;3.55;3.25;;;;;;;20.16;71.38;96474.34;10360299;28;20053;-24
2022/07/29 00:20:45;;;;;;;3.73;3.43;;;;;;;20.11;71.51;96475.25;10363891;28;20033;-24
2022/07/29 00:25:46;;;;;;;4.27;3.63;;;;;;;20.12;71.53;96474.38;10364389;28;20514;-24
2022/07/29 00:30:46;;;;;;;6.37;4.03;;;;;;;20.14;71.24;96465.91;10363616;28;20712;-26
2022/07/29 00:35:47;;;;;;;5.20;3.77;;;;;;;20.03;71.51;96459.19;10357839;28;20499;-26
2022/07/29 00:40:48;;;;;;;4.78;4.15;;;;;;;19.97;72.06;96462.66;10364285;28;20475;-27
2022/07/29 00:45:48;;;;;;;4.00;3.60;;;;;;;20.00;71.60;96461.78;10362180;28;20040;-26
2022/07/29 00:50:49;;;;;;;6.78;3.63;;;;;;;20.02;71.35;96453.25;10360233;28;20034;-27
2022/07/29 00:55:50;;;;;;;5.78;3.55;;;;;;;20.04;70.83;96461.78;10364366;28;20463;-26
2022/07/29 01:00:51;;;;;;;3.38;3.08;;;;;;;19.93;70.91;96455.91;10359663;28;20410;-26
2022/07/29 01:05:52;;;;;;;6.05;3.92;;;;;;;20.03;70.50;96456.66;10360871;28;20033;-27
2022/07/29 01:10:54;;;;;;;3.90;3.53;;;;;;;19.99;70.43;96457.53;10364472;28;20049;-26
2022/07/29 01:15:59;;;;;;;7.60;4.28;;;;;;;19.82;71.10;96456.84;10363883;28;20576;-26
2022/07/29 01:21:11;;;;;;;3.25;2.95;;;;;;;19.90;70.79;96452.53;10369060;28;20455;-26
2022/07/29 01:26:14;;;;;;;3.50;3.20;;;;;;;19.92;70.52;96455.94;10370183;28;20041;-26
2022/07/29 01:31:27;;;;;;;5.55;3.53;;;;;;;19.88;70.74;96439.03;10368944;28;20112;-26
2022/07/29 01:36:44;;;;;;;5.70;3.38;;;;;;;19.85;70.21;96451.78;10359742;28;20132;-26
2022/07/29 01:42:23;;;;;;;9.43;3.53;;;;;;;19.86;70.05;96450.91;10364899;28;20045;-26
2022/07/29 01:47:31;;;;;;;4.25;3.20;;;;;;;19.85;69.50;96450.06;10367366;28;20045;-26
2022/07/29 01:52:49;;;;;;;5.40;3.55;;;;;;;19.81;69.54;96442.47;10365716;28;20042;-26
2022/07/29 01:57:51;;;;;;;5.93;4.03;;;;;;;19.78;69.70;96452.69;10366311;28;20049;-26
2022/07/29 02:02:54;;;;;;;5.53;4.45;;;;;;;19.72;70.13;96447.66;10367864;28;20041;-27
2022/07/29 02:07:55;;;;;;;5.15;4.10;;;;;;;19.73;70.34;96449.31;10368482;28;20108;-26
2022/07/29 02:12:58;;;;;;;7.72;3.55;;;;;;;19.74;70.03;96441.69;10368802;28;20037;-27
2022/07/29 02:18:03;;;;;;;5.35;3.63;;;;;;;19.77;69.81;96456.06;10366970;28;20112;-27
2022/07/29 02:23:04;;;;;;;4.43;3.63;;;;;;;19.66;69.99;96452.81;10366183;28;20478;-26
2022/07/29 02:28:06;;;;;;;5.18;3.42;;;;;;;19.73;69.50;96444.25;10367977;28;20581;-25
2022/07/29 02:33:09;;;;;;;5.05;3.33;;;;;;;19.71;69.42;96456.13;10365068;28;20040;-24
2022/07/29 02:43:35;;;;;;;4.50;3.50;;;;;;;19.66;69.30;96448.53;10367137;28;20041;-24
2022/07/29 02:48:52;;;;;;;4.65;3.60;;;;;;;19.61;69.92;96459.59;10359500;28;20034;-24
2022/07/29 02:53:56;;;;;;;5.97;3.67;;;;;;;19.62;69.53;96446.06;10362135;28;20606;-27
2022/07/29 02:59:02;;;;;;;3.90;3.20;;;;;;;19.69;69.37;96452.75;10364796;28;20030;-26
2022/07/29 03:04:04;;;;;;;5.15;3.53;;;;;;;19.57;69.70;96458.78;10367001;28;20045;-27
2022/07/29 03:09:10;;;;;;;3.67;3.38;;;;;;;19.55;69.36;96449.50;10362551;28;20046;-26
2022/07/29 03:14:12;;;;;;;3.85;3.55;;;;;;;19.59;69.60;96454.53;10365030;28;20049;-24
2022/07/29 03:19:13;;;;;;;7.95;3.53;;;;;;;19.51;69.45;96442.78;10366211;28;20044;-24
2022/07/29 03:24:28;;;;;;;4.57;3.25;;;;;;;19.52;69.18;96445.28;10364640;28;20041;-25
2022/07/29 03:29:29;;;;;;;3.95;3.13;;;;;;;19.52;68.42;96439.38;10360841;28;20592;-25
2022/07/29 03:34:29;;;;;;;3.20;2.90;;;;;;;19.56;68.98;96438.47;10365088;28;20030;-26
2022/07/29 03:39:34;;;;;;;3.80;3.47;;;;;;;19.55;68.52;96449.50;10359676;28;20412;-28
2022/07/29 03:44:36;;;;;;;6.75;3.67;;;;;;;19.42;68.49;96433.53;10361713;28;20121;-26
2022/07/29 03:49:40;;;;;;;5.13;3.20;;;;;;;19.55;67.90;96449.50;10365605;28;20038;-26
2022/07/29 03:54:40;;;;;;;4.80;3.63;;;;;;;19.51;67.94;96452.94;10362485;28;20042;-25
2022/07/29 03:59:43;;;;;;;6.90;3.15;;;;;;;19.44;68.66;96446.22;10364120;28;20046;-24
2022/07/29 04:04:43;;;;;;;3.80;2.80;;;;;;;19.41;68.41;96446.25;10363515;28;20133;-25
2022/07/29 04:09:44;;;;;;;3.38;3.08;;;;;;;19.36;67.61;96438.66;10360163;28;20044;-27
2022/07/29 04:14:44;;;;;;;5.25;3.08;;;;;;;19.50;67.74;96453.78;10359789;28;20034;-26
2022/07/29 04:19:44;;;;;;;3.97;3.00;;;;;;;19.56;67.77;96451.16;10364531;28;20029;-26
2022/07/29 04:24:45;;;;;;;4.45;2.92;;;;;;;19.49;67.49;96459.72;10362789;28;20404;-26
2022/07/29 04:29:45;;;;;;;4.50;2.97;;;;;;;19.49;67.24;96464.81;10363925;28;20040;-25
2022/07/29 04:34:46;;;;;;;3.43;2.83;;;;;;;19.53;67.62;96461.38;10363935;28;20034;-25
2022/07/29 04:39:46;;;;;;;4.45;2.90;;;;;;;19.48;66.94;96458.88;10358798;28;20092;-26
2022/07/29 04:44:47;;;;;;;3.17;2.87;;;;;;;19.53;67.25;96462.22;10357762;28;20407;-26
2022/07/29 04:49:47;;;;;;;4.57;3.23;;;;;;;19.47;66.92;96471.56;10367290;28;20467;-26
2022/07/29 04:54:48;;;;;;;3.40;2.85;;;;;;;19.51;67.05;96468.16;10365500;28;20428;-24
2022/07/29 04:59:48;;;;;;;3.58;2.83;;;;;;;19.53;67.08;96467.31;10366357;28;20029;-24
2022/07/29 05:04:49;;;;;;;7.78;3.30;;;;;;;19.51;67.77;96478.31;10370605;28;20034;-24
2022/07/29 05:09:49;;;;;;;4.10;2.90;;;;;;;19.50;67.64;96481.72;10367062;28;20762;-24
2022/07/29 05:14:49;;;;;;;5.33;3.73;;;;;;;19.51;68.05;96481.69;10369967;28;20034;-27
2022/07/29 05:19:51;;;;;;;6.30;2.87;;;;;;;19.49;67.94;96490.19;10367745;28;20107;-27
2022/07/29 05:24:51;;;;;;;3.97;3.03;;;;;;;19.59;67.89;96481.63;10357740;28;20048;-27
2022/07/29 05:29:51;;;;;;;4.70;2.83;;;;;;;19.58;68.13;96490.13;10311075;28;21417;-26
2022/07/29 05:34:52;;;;;;;5.03;3.03;;;;;;;19.60;67.99;96494.31;10315609;28;20050;-27
2022/07/29 05:39:52;;;;;;;6.15;3.00;;;;;;;19.63;67.72;96495.97;10319584;28;20305;-26
2022/07/29 05:44:53;;;;;;;3.67;2.73;;;;;;;19.59;68.21;96501.97;10317254;28;20033;-26
2022/07/29 05:49:53;;;;;;;4.97;2.93;;;;;;;19.65;68.31;96522.19;10307131;28;20590;-26
2022/07/29 05:54:54;;;;;;;4.55;3.22;;;;;;;19.63;68.47;96522.25;10323820;28;20296;-26
2022/07/29 05:59:54;;;;;;;11.73;4.03;;;;;;;19.63;68.35;96526.47;10312223;28;20399;-27
2022/07/29 06:04:54;;;;;;;4.67;4.07;;;;;;;19.83;67.80;96533.06;10312342;28;20296;-29
2022/07/29 06:09:55;;;;;;;5.37;3.77;;;;;;;19.80;68.10;96534.78;10315031;28;20037;-28
2022/07/29 06:14:55;;;;;;;6.90;3.43;;;;;;;19.83;68.63;96539.88;10316296;28;21128;-28
2022/07/29 06:19:56;;;;;;;3.97;3.53;;;;;;;19.84;69.00;96528.84;10302940;28;20049;-28
2022/07/29 06:24:56;;;;;;;5.13;3.30;;;;;;;19.92;68.81;96532.16;10315150;28;20416;-27
2022/07/29 06:29:56;;;;;;;5.70;3.87;;;;;;;20.08;68.77;96538.84;10314563;28;20508;-27
2022/07/29 06:34:57;;;;;;;3.73;3.43;;;;;;;20.13;68.30;96542.16;10314855;28;20119;-27
2022/07/29 06:45:16;;;;;;;5.20;3.08;;;;;;;20.26;68.06;96546.28;10313895;28;20049;-26
2022/07/29 06:50:16;;;;;;;7.63;3.43;;;;;;;20.26;68.62;96546.28;10318279;28;20592;-24
2022/07/29 06:55:19;;;;;;;4.67;3.40;;;;;;;20.34;68.06;96549.59;10326376;28;20067;-25
2022/07/29 07:00:19;;;;;;;7.63;3.80;;;;;;;20.36;68.36;96550.41;10305390;28;20296;-26
2022/07/29 07:05:19;;;;;;;5.43;4.15;;;;;;;20.39;67.88;96552.06;10303651;28;20331;-26
2022/07/29 07:10:20;;;;;;;3.40;3.10;;;;;;;20.42;68.36;96550.34;10302516;28;20129;-26
2022/07/29 07:15:23;;;;;;;4.97;3.40;;;;;;;20.43;68.67;96565.56;10303552;28;20049;-27
2022/07/29 07:20:24;;;;;;;5.25;3.45;;;;;;;20.44;68.77;96565.56;10302635;28;20112;-27
2022/07/29 07:25:25;;;;;;;5.60;3.47;;;;;;;20.48;68.42;96574.84;10304466;28;20041;-27
2022/07/29 07:30:26;;;;;;;5.28;3.95;;;;;;;20.53;67.89;96574.78;10304409;28;20496;-27
2022/07/29 07:35:27;;;;;;;4.45;3.33;;;;;;;20.50;67.53;96575.69;10311959;28;20623;-27
2022/07/29 07:40:27;;;;;;;4.50;3.55;;;;;;;20.59;67.90;96585.78;10318822;28;20037;-25
2022/07/29 07:45:28;;;;;;;4.50;3.50;;;;;;;20.52;67.90;96594.31;10313793;28;20030;-27
2022/07/29 07:50:28;;;;;;;7.35;3.50;;;;;;;20.74;67.72;96594.94;10311173;28;20029;-29
2022/07/29 07:55:29;;;;;;;8.43;3.67;;;;;;;20.80;66.90;96605.88;10309143;28;20030;-27
2022/07/29 08:00:29;;;;;;;6.20;3.30;;;;;;;20.81;66.38;96607.56;10309357;28;20061;-27
2022/07/29 08:05:29;;;;;;;5.93;3.70;;;;;;;20.83;66.38;96610.97;10303701;28;20028;-26
2022/07/29 08:15:57;;;;;;;5.63;4.18;;;;;;;20.86;65.81;96595.66;10306870;28;20040;-27
2022/07/29 08:20:58;;;;;;;5.32;3.75;;;;;;;20.86;66.01;96600.75;10305444;28;20069;-27
2022/07/29 08:25:58;;;;;;;7.70;3.53;;;;;;;20.88;65.80;96588.84;10318242;28;20030;-29
2022/07/29 08:30:59;;;;;;;4.33;2.90;;;;;;;21.10;65.60;96595.38;10322572;28;20034;-26
2022/07/29 08:35:59;;;;;;;4.93;3.50;;;;;;;21.15;65.15;96591.06;10318491;28;20030;-27
2022/07/29 08:41:02;;;;;;;3.83;2.83;;;;;;;21.07;64.69;96594.59;10291819;28;21547;-26
2022/07/29 08:46:03;;;;;;;5.32;3.47;;;;;;;21.01;64.81;96595.50;10262260;28;20193;-24
2022/07/29 08:51:06;;;;;;;4.40;3.28;;;;;;;20.99;65.29;96599.75;10259393;28;20038;-26
2022/07/29 08:56:08;;;;;;;6.93;4.00;;;;;;;20.97;64.81;96601.47;10259573;28;20044;-27
2022/07/29 09:01:10;;;;;;;6.40;3.13;;;;;;;20.99;64.78;96604.00;10270714;28;20063;-26
2022/07/29 09:06:13;;;;;;;6.50;3.50;;;;;;;20.97;65.00;96598.09;10278499;28;20053;-30
2022/07/29 09:11:14;;;;;;;5.20;2.70;;;;;;;20.97;64.64;96610.84;10270392;28;20034;-27
2022/07/29 09:16:14;;;;;;;4.53;3.20;;;;;;;20.97;64.97;96604.03;10272830;28;20483;-28
2022/07/29 09:26:43;;;;;;;5.65;3.08;;;;;;;21.17;64.54;96580.88;10275598;28;20038;-26
2022/07/29 09:31:48;;;;;;;3.53;2.90;;;;;;;21.16;63.92;96610.59;10349927;28;20026;-27
2022/07/29 09:36:50;;;;;;;5.85;3.05;;;;;;;21.05;64.37;96599.69;10362873;28;20038;-26
2022/07/29 09:41:53;;;;;;;5.78;3.22;;;;;;;21.06;64.39;96609.00;10369719;28;20073;-27
2022/07/29 09:46:58;;;;;;;6.72;3.15;;;;;;;21.03;64.25;96598.88;10326028;28;20120;-27
2022/07/29 09:52:06;;;;;;;7.38;2.80;;;;;;;21.03;64.09;96608.19;10311778;28;20038;-27
2022/07/29 09:57:12;;;;;;;7.85;2.80;;;;;;;21.00;64.24;96598.91;10298007;28;20515;-27
2022/07/29 10:02:14;;;;;;;5.40;2.92;;;;;;;21.02;64.34;96601.41;10311470;28;20141;-27
2022/07/29 10:07:14;;;;;;;8.75;3.17;;;;;;;21.08;64.98;96606.44;10310008;28;20930;-26
2022/07/29 10:12:14;;;;;;;4.87;2.90;;;;;;;21.27;64.64;96603.66;10313093;28;20060;-25
2022/07/29 10:17:15;;;;;;;2.70;2.23;;;;;;;21.32;63.92;96598.50;10310542;28;20802;-26
2022/07/29 10:22:16;;;;;;;3.35;2.60;;;;;;;21.23;63.40;96599.44;10306036;28;21853;-26
2022/07/29 10:27:17;;;;;;;3.50;2.90;;;;;;;21.14;63.90;96591.94;10305575;28;20061;-25
2022/07/29 10:32:40;;;;;;;3.15;2.60;;;;;;;21.10;64.07;96592.84;10312526;28;20304;-26
2022/07/29 10:37:56;;;;;;;3.83;2.50;;;;;;;21.10;63.99;96602.16;10304261;28;20041;-26
2022/07/29 10:43:07;;;;;;;4.22;3.17;;;;;;;21.08;63.95;96602.22;10312018;28;20146;-28
2022/07/29 10:48:08;;;;;;;4.32;2.58;;;;;;;21.07;64.13;96603.03;10293461;28;20029;-27
2022/07/29 10:53:09;;;;;;;4.07;2.50;;;;;;;21.08;64.20;96603.91;10290769;28;20480;-26
2022/07/29 10:58:13;;;;;;;5.82;2.97;;;;;;;21.16;64.15;96609.75;10307006;28;20042;-26
2022/07/29 11:03:44;;;;;;;8.00;3.65;;;;;;;21.36;63.74;96613.72;10301240;28;20587;-26
2022/07/29 11:08:44;;;;;;;6.43;2.30;;;;;;;21.35;63.26;96604.41;10305819;28;20048;-26
2022/07/29 11:13:49;;;;;;;3.07;2.30;;;;;;;21.25;63.41;96605.38;10299393;28;20046;-26
2022/07/29 11:19:11;;;;;;;3.88;2.53;;;;;;;21.18;63.54;96601.22;10309258;28;20475;-26
2022/07/29 11:24:13;;;;;;;6.00;2.42;;;;;;;21.15;63.83;96603.78;10305572;28;20114;-27
2022/07/29 11:29:19;;;;;;;5.80;3.05;;;;;;;21.16;63.71;96604.66;10303767;28;20053;-26
2022/07/29 11:34:29;;;;;;;5.10;3.13;;;;;;;21.14;63.59;96612.28;10310137;28;20490;-26
2022/07/29 11:39:29;;;;;;;5.35;2.40;;;;;;;21.12;63.75;96619.13;10298796;28;20045;-27
2022/07/29 11:45:05;;;;;;;10.40;2.83;;;;;;;21.12;63.63;96621.66;10304281;28;20384;-29
2022/07/29 11:50:15;;;;;;;3.72;2.55;;;;;;;21.30;63.14;96613.78;10288191;28;21039;-27
2022/07/29 11:55:19;;;;;;;4.85;2.60;;;;;;;21.42;63.01;96612.81;10304683;28;20155;-27
2022/07/29 12:00:28;;;;;;;3.67;1.95;;;;;;;21.36;62.84;96613.72;10308633;28;20074;-26
2022/07/29 12:05:44;;;;;;;2.60;2.03;;;;;;;21.19;63.00;96610.56;10299474;28;20025;-29
2022/07/29 12:10:46;;;;;;;2.73;2.53;;;;;;;21.21;63.13;96623.28;10281733;28;20046;-26
2022/07/29 12:15:54;;;;;;;4.43;2.28;;;;;;;21.18;63.25;96619.06;10272418;28;20042;-26
2022/07/29 12:21:06;;;;;;;3.75;2.92;;;;;;;21.15;63.42;96624.16;10268389;28;20041;-28
2022/07/29 12:26:07;;;;;;;3.90;2.50;;;;;;;21.16;63.27;96630.97;10271061;28;20038;-26
2022/07/29 12:31:14;;;;;;;7.13;2.85;;;;;;;21.16;63.36;96635.19;10270341;28;20030;-26
2022/07/29 12:36:14;;;;;;;5.60;2.50;;;;;;;21.18;63.47;96631.78;10270626;28;22391;-27
2022/07/29 12:41:15;;;;;;;3.27;2.73;;;;;;;21.38;63.15;96640.00;10270636;28;20082;-27
2022/07/29 12:46:15;;;;;;;5.30;2.50;;;;;;;21.46;62.77;96639.94;10267952;28;22029;-26
2022/07/29 12:51:16;;;;;;;5.70;2.53;;;;;;;21.37;62.63;96634.94;10269275;28;20054;-26
2022/07/29 12:56:17;;;;;;;4.93;2.10;;;;;;;21.27;62.95;96639.31;10269270;28;20057;-27
2022/07/29 13:01:19;;;;;;;3.65;2.55;;;;;;;21.23;63.05;96632.56;10271003;28;20647;-27
2022/07/29 13:06:30;;;;;;;4.18;2.60;;;;;;;21.22;63.22;96630.88;10266655;28;20129;-26
2022/07/29 13:11:52;;;;;;;7.13;3.00;;;;;;;21.22;63.23;96625.78;10278620;28;20034;-27
2022/07/29 13:17:08;;;;;;;8.90;2.78;;;;;;;21.18;63.03;96624.16;10278426;28;20057;-27
2022/07/29 13:22:17;;;;;;;4.53;2.72;;;;;;;21.07;63.37;96604.75;10270482;28;20121;-26
2022/07/29 13:27:18;;;;;;;5.03;2.75;;;;;;;21.22;63.50;96625.78;10269080;28;20057;-26
2022/07/29 13:32:20;;;;;;;4.70;3.13;;;;;;;21.44;62.87;96619.56;10276458;28;20131;-26
2022/07/29 13:37:20;;;;;;;4.88;2.10;;;;;;;21.49;62.27;96620.31;10283019;28;21630;-27
2022/07/29 13:42:22;;;;;;;3.20;2.53;;;;;;;21.37;62.63;96615.41;10274144;28;20061;-26
2022/07/29 13:47:22;;;;;;;5.18;2.95;;;;;;;21.35;62.81;96617.13;10279667;28;20388;-26
2022/07/29 13:52:23;;;;;;;4.68;3.20;;;;;;;21.34;62.45;96614.59;10279920;28;20702;-26
2022/07/29 13:57:23;;;;;;;4.50;3.10;;;;;;;21.33;62.21;96608.69;10283416;28;20077;-27
2022/07/29 14:02:24;;;;;;;4.85;2.72;;;;;;;21.29;62.51;96616.38;10283125;28;20108;-28
2022/07/29 14:07:24;;;;;;;7.97;2.80;;;;;;;21.28;62.28;96610.44;10278783;28;20035;-28
2022/07/29 14:12:25;;;;;;;3.43;2.47;;;;;;;21.28;62.36;96615.53;10284180;28;20034;-28
2022/07/29 14:17:25;;;;;;;3.27;2.60;;;;;;;21.37;62.42;96625.59;10280661;28;20034;-27
2022/07/29 14:22:25;;;;;;;6.30;2.40;;;;;;;21.46;62.04;96614.47;10281748;28;20562;-26
2022/07/29 14:27:26;;;;;;;5.37;2.37;;;;;;;21.53;61.73;96618.59;10277783;28;20029;-27
2022/07/29 14:32:26;;;;;;;2.07;1.90;;;;;;;21.41;61.99;96626.41;10279404;28;20044;-28
2022/07/29 14:37:26;;;;;;;2.50;2.07;;;;;;;21.35;62.15;96634.97;10270618;28;20367;-28
2022/07/29 14:42:27;;;;;;;5.10;2.57;;;;;;;21.31;62.09;96635.84;10277653;28;20058;-27
2022/07/29 14:47:27;;;;;;;4.30;2.60;;;;;;;21.29;62.18;96632.47;10278409;28;20034;-28
2022/07/29 14:52:27;;;;;;;7.90;2.77;;;;;;;21.32;61.58;96637.53;10281294;28;20289;-27
2022/07/29 14:57:28;;;;;;;3.13;2.37;;;;;;;21.30;61.44;96644.34;10277937;28;20467;-26
2022/07/29 15:02:28;;;;;;;3.58;2.58;;;;;;;21.32;61.67;96645.16;10280390;28;20080;-27
2022/07/29 15:07:29;;;;;;;2.80;2.30;;;;;;;21.40;59.82;96645.91;10278034;28;20026;-28
2022/07/29 15:12:30;;;;;;;3.33;2.17;;;;;;;21.56;58.90;96647.41;10281836;28;20037;-27
2022/07/29 15:17:30;;;;;;;1.55;1.45;;;;;;;21.56;60.03;96654.22;10280322;28;20053;-27
2022/07/29 15:22:31;;;;;;;3.13;2.40;;;;;;;21.47;59.56;96647.53;10323027;28;20045;-28
2022/07/29 15:27:31;;;;;;;6.37;2.30;;;;;;;21.42;59.78;96648.47;10322588;28;20034;-27
2022/07/29 15:32:31;;;;;;;3.97;2.43;;;;;;;21.38;60.27;96646.81;10323966;28;20042;-27
2022/07/29 15:37:34;;;;;;;2.65;2.30;;;;;;;21.37;59.85;96643.41;10319665;28;20127;-26
2022/07/29 15:42:36;;;;;;;3.58;2.33;;;;;;;21.37;59.05;96645.97;10309975;28;20161;-26
2022/07/29 15:47:36;;;;;;;3.35;1.95;;;;;;;21.35;59.29;96641.75;10322000;28;20037;-27
2022/07/29 15:52:36;;;;;;;4.63;2.35;;;;;;;21.32;60.31;96645.16;10319299;28;20038;-28
2022/07/29 15:57:37;;;;;;;2.60;1.90;;;;;;;21.43;56.77;96639.94;10324791;28;20042;-27
2022/07/29 16:02:37;;;;;;;3.10;1.73;;;;;;;21.56;56.64;96634.66;10322807;28;20062;-26
2022/07/29 16:07:37;;;;;;;2.97;1.88;;;;;;;21.55;58.89;96638.09;10319216;28;20034;-27
2022/07/29 16:12:38;;;;;;;3.33;1.70;;;;;;;21.46;58.91;96639.94;10319573;28;20480;-27
2022/07/29 16:17:38;;;;;;;4.50;2.13;;;;;;;21.43;58.64;96632.31;10324246;28;20053;-25
2022/07/29 16:22:38;;;;;;;2.13;1.87;;;;;;;21.41;58.36;96623.84;10315614;28;20129;-26
2022/07/29 16:27:39;;;;;;;2.63;1.80;;;;;;;21.37;59.42;96627.28;10322123;28;20023;-26
2022/07/29 16:32:39;;;;;;;4.00;2.10;;;;;;;21.35;58.30;96627.31;10319316;28;20042;-26
2022/07/29 16:37:40;;;;;;;4.97;1.90;;;;;;;21.34;59.73;96618.00;10316241;28;20046;-26
2022/07/29 16:42:40;;;;;;;3.42;2.05;;;;;;;21.45;57.86;96617.84;10296308;28;20521;-26
2022/07/29 16:47:40;;;;;;;3.83;1.97;;;;;;;21.59;56.69;96619.38;10323955;28;20139;-26
2022/07/29 16:52:41;;;;;;;1.93;1.73;;;;;;;21.55;59.30;96620.25;10326481;28;20035;-27
2022/07/29 16:57:42;;;;;;;4.20;1.90;;;;;;;21.46;59.18;96629.75;10327313;28;20034;-27
2022/07/29 17:02:43;;;;;;;3.25;2.05;;;;;;;21.41;59.29;96617.03;10313123;28;20188;-27
2022/07/29 17:07:43;;;;;;;2.80;1.83;;;;;;;21.35;60.31;96611.19;10323821;28;20093;-26
2022/07/29 17:12:44;;;;;;;2.20;1.70;;;;;;;21.31;61.13;96619.75;10326371;28;20101;-26
2022/07/29 17:17:45;;;;;;;1.95;1.70;;;;;;;21.28;60.93;96618.06;10323584;28;20301;-27
2022/07/29 17:22:46;;;;;;;2.60;1.55;;;;;;;21.29;61.14;96624.84;10325020;28;20034;-27
2022/07/29 17:27:49;;;;;;;2.38;1.92;;;;;;;21.30;60.99;96634.16;10326998;28;20524;-27
2022/07/29 17:32:49;;;;;;;2.60;1.60;;;;;;;21.41;57.85;96639.13;10329453;28;20096;-28
2022/07/29 17:37:50;;;;;;;2.23;1.63;;;;;;;21.58;55.19;96634.66;10325068;28;20065;-26
2022/07/29 17:42:51;;;;;;;1.73;1.55;;;;;;;21.58;58.92;96635.50;10326147;28;20698;-27
2022/07/29 17:47:51;;;;;;;3.55;1.70;;;;;;;21.49;58.58;96640.72;10325765;28;20037;-26
2022/07/29 17:52:51;;;;;;;4.53;1.57;;;;;;;21.35;57.19;96637.50;10322276;28;20042;-26
2022/07/29 17:57:52;;;;;;;8.33;2.40;;;;;;;21.40;58.50;96650.19;10328170;28;20794;-26
2022/07/29 18:02:52;;;;;;;4.07;1.70;;;;;;;21.41;58.56;96652.69;10326452;28;20137;-26
2022/07/29 18:07:54;;;;;;;3.17;1.70;;;;;;;21.38;57.82;96645.09;10317733;28;20033;-25
2022/07/29 18:12:55;;;;;;;4.72;1.77;;;;;;;21.53;55.56;96662.75;10327870;28;20042;-26
2022/07/29 18:17:55;;;;;;;3.40;1.55;;;;;;;21.67;55.38;96657.50;10322584;28;20034;-25
2022/07/29 18:22:56;;;;;;;2.50;1.60;;;;;;;21.62;58.86;96665.16;10323959;28;20040;-26
2022/07/29 18:27:56;;;;;;;2.28;1.60;;;;;;;21.49;58.27;96663.63;10327931;28;20109;-27
2022/07/29 18:32:57;;;;;;;3.10;1.50;;;;;;;21.45;58.75;96667.09;10322989;28;20085;-26
2022/07/29 18:37:57;;;;;;;1.70;1.60;;;;;;;21.39;59.83;96673.97;10321942;28;20485;-26
2022/07/29 18:42:58;;;;;;;1.73;1.63;;;;;;;21.37;60.26;96676.53;10326727;28;20030;-27
2022/07/29 18:47:58;;;;;;;1.93;1.73;;;;;;;21.33;60.71;96674.91;10325370;28;20285;-27
2022/07/29 18:53:00;;;;;;;1.60;1.50;;;;;;;21.31;60.87;96676.59;10324306;28;20297;-26
2022/07/29 18:58:00;;;;;;;1.60;1.50;;;;;;;21.31;61.12;96684.22;10327814;28;20053;-27
2022/07/29 19:03:02;;;;;;;3.57;1.30;;;;;;;21.49;57.74;96684.00;10324266;28;20552;-28
2022/07/29 19:08:02;;;;;;;1.85;1.50;;;;;;;21.63;57.17;96699.97;10322280;28;20033;-26
2022/07/29 19:13:02;;;;;;;1.50;1.40;;;;;;;21.58;59.54;96696.66;10325525;28;20045;-25
2022/07/29 19:18:03;;;;;;;2.20;1.40;;;;;;;21.43;59.48;96696.00;10322613;28;20030;-26
2022/07/29 19:23:03;;;;;;;1.92;1.50;;;;;;;21.40;60.23;96712.13;10324453;28;20667;-27
2022/07/29 19:28:04;;;;;;;1.47;1.37;;;;;;;21.39;60.48;96719.81;10326182;28;20038;-26
2022/07/29 19:33:04;;;;;;;4.03;2.07;;;;;;;21.38;60.50;96728.31;10324572;28;20277;-27
2022/07/29 19:38:04;;;;;;;1.80;1.40;;;;;;;21.35;60.50;96734.28;10320386;28;20037;-27
2022/07/29 19:43:05;;;;;;;1.87;1.53;;;;;;;21.36;60.66;96737.66;10324908;28;20046;-26
2022/07/29 19:48:06;;;;;;;1.40;1.30;;;;;;;21.23;60.53;96729.31;10323195;28;20034;-27
2022/07/29 19:53:06;;;;;;;2.20;1.73;;;;;;;21.52;57.19;96742.59;10321456;28;20528;-27
2022/07/29 19:58:07;;;;;;;2.93;1.93;;;;;;;21.61;57.31;96742.47;10325146;28;20022;-27
2022/07/29 20:03:08;;;;;;;1.20;1.10;;;;;;;21.59;59.42;96756.94;10321629;28;20034;-25
2022/07/29 20:08:08;;;;;;;2.58;1.65;;;;;;;21.48;59.12;96753.66;10319309;28;20412;-26
2022/07/29 20:13:09;;;;;;;2.20;1.67;;;;;;;21.44;59.83;96758.81;10322920;28;20424;-28
2022/07/29 20:18:09;;;;;;;4.82;2.10;;;;;;;20.85;57.92;96754.28;10318830;28;20345;-25
2022/07/29 20:23:10;;;;;;;2.07;1.43;;;;;;;20.61;56.05;96757.03;10322549;28;20053;-24
2022/07/29 20:28:10;;;;;;;3.72;1.60;;;;;;;20.55;55.48;96759.59;10324833;28;20072;-25
2022/07/29 20:33:11;;;;;;;5.47;2.10;;;;;;;20.55;56.83;96751.97;10322112;28;20050;-25
2022/07/29 20:38:11;;;;;;;2.20;1.50;;;;;;;20.26;56.46;96768.28;10317918;28;20524;-25
2022/07/29 20:43:12;;;;;;;1.65;1.42;;;;;;;20.18;56.71;96767.50;10322107;28;20043;-24
2022/07/29 20:48:12;;;;;;;2.77;1.40;;;;;;;20.18;56.36;96753.97;10322094;28;20050;-24
2022/07/29 20:53:17;;;;;;;3.42;1.50;;;;;;;20.10;56.43;96765.88;10320646;28;20312;-26
2022/07/29 20:58:18;;;;;;;2.72;1.52;;;;;;;20.24;57.23;96764.06;10320305;28;20030;-24
2022/07/29 21:03:19;;;;;;;3.47;1.52;;;;;;;20.07;56.40;96758.22;10322635;28;20046;-25
2022/07/29 21:08:19;;;;;;;3.10;2.10;;;;;;;19.99;56.18;96765.03;10318659;28;20495;-25
2022/07/29 21:13:21;;;;;;;3.00;1.60;;;;;;;20.01;56.13;96760.81;10323002;28;20530;-24
2022/07/29 21:18:35;;;;;;;5.40;1.73;;;;;;;20.08;55.87;96762.50;10321131;28;20316;-25
2022/07/29 21:23:36;;;;;;;2.55;1.85;;;;;;;20.10;55.25;96760.78;10314207;28;20062;-25
2022/07/29 21:28:39;;;;;;;3.30;1.70;;;;;;;20.16;54.93;96770.88;10323247;28;20770;-25
2022/07/29 21:33:42;;;;;;;1.67;1.50;;;;;;;19.99;54.92;96768.41;10324513;28;20042;-25
2022/07/29 21:38:42;;;;;;;2.55;1.92;;;;;;;20.07;55.09;96760.78;10325071;28;20034;-24
2022/07/29 21:43:44;;;;;;;5.00;1.90;;;;;;;19.99;54.95;96772.66;10328646;28;20408;-25
2022/07/29 21:48:45;;;;;;;2.35;1.73;;;;;;;19.95;55.20;96764.22;10330303;28;20038;-25
2022/07/29 21:53:45;;;;;;;3.03;1.53;;;;;;;19.93;55.27;96770.97;10326702;28;20041;-26
2022/07/29 21:58:45;;;;;;;1.70;1.50;;;;;;;20.02;55.59;96773.47;10325764;28;20038;-26
2022/07/29 22:03:46;;;;;;;2.70;1.47;;;;;;;19.80;55.26;96771.06;10326788;28;20030;-25
2022/07/29 22:08:46;;;;;;;2.87;1.50;;;;;;;19.87;55.59;96772.72;10325577;28;20290;-25
2022/07/29 22:13:47;;;;;;;4.65;1.30;;;;;;;19.82;55.71;96770.19;10328386;28;20046;-24
2022/07/29 22:18:47;;;;;;;5.07;1.58;;;;;;;19.84;55.04;96785.44;10324479;28;20038;-25
2022/07/29 22:23:48;;;;;;;3.67;1.52;;;;;;;19.91;55.55;96785.41;10326845;28;20496;-25
2022/07/29 22:28:48;;;;;;;4.10;1.60;;;;;;;19.88;55.38;96789.66;10323394;28;20042;-24
2022/07/29 22:33:50;;;;;;;3.90;2.13;;;;;;;19.90;55.55;96783.72;10328287;28;20278;-25
2022/07/29 22:38:50;;;;;;;5.68;2.00;;;;;;;19.87;54.95;96793.03;10322354;28;20301;-25
2022/07/29 22:43:51;;;;;;;3.77;1.67;;;;;;;19.94;54.90;96797.25;10320096;28;20038;-25
2022/07/29 22:48:51;;;;;;;4.25;1.63;;;;;;;19.98;55.23;96781.97;10328601;28;20382;-25
2022/07/29 22:53:52;;;;;;;2.10;1.63;;;;;;;19.75;55.20;96788.03;10320706;28;20511;-25
2022/07/29 22:58:54;;;;;;;5.50;1.70;;;;;;;19.79;55.12;96794.78;10325350;28;20093;-26
2022/07/29 23:03:54;;;;;;;2.55;1.45;;;;;;;19.85;55.29;96804.91;10326810;28;20046;-25
2022/07/29 23:08:55;;;;;;;2.63;1.60;;;;;;;19.86;55.29;96806.59;10323366;28;20030;-25
2022/07/29 23:13:55;;;;;;;1.93;1.37;;;;;;;19.65;55.24;96799.03;10321394;28;20496;-24
2022/07/29 23:18:55;;;;;;;4.30;2.40;;;;;;;19.77;55.34;96812.56;10326531;28;20448;-24
2022/07/29 23:23:56;;;;;;;2.90;1.40;;;;;;;19.81;55.18;96816.78;10323796;28;20022;-25
2022/07/29 23:28:56;;;;;;;4.30;2.33;;;;;;;19.76;54.55;96825.28;10324243;28;20396;-25
2022/07/29 23:33:57;;;;;;;2.13;1.20;;;;;;;19.79;54.76;96830.34;10325126;28;20026;-25
2022/07/29 23:38:57;;;;;;;2.33;1.30;;;;;;;19.79;55.09;96825.25;10320693;28;20062;-25
2022/07/29 23:43:57;;;;;;;3.60;1.65;;;;;;;19.58;55.05;96817.72;10319486;28;20675;-25